Time;durP1;ratioP1;P1;durP2;ratioP2;P2;SDS_P1;SDS_P2;PMS_P1;PMS_P2;Temp;Humidity;BMP_temperature;BMP_pressure;BME280_temperature;BME280_humidity;BME280_pressure;Samples;Min_cycle;Max_cycle;Signal;HPM_P1;HPM_P2
2023/03/29 00:01:16;;;;;;;7.13;4.77;;;0.20;99.90;;;;;;5011857;28;20502;-51
2023/03/29 00:03:44;;;;;;;6.30;4.40;;;0.30;99.90;;;;;;5004811;28;20513;-51
2023/03/29 00:06:14;;;;;;;8.20;4.60;;;0.30;99.90;;;;;;5010541;28;20456;-52
2023/03/29 00:08:44;;;;;;;7.97;4.63;;;0.30;99.90;;;;;;5012255;28;20455;-51
2023/03/29 00:11:11;;;;;;;8.10;4.60;;;0.30;99.90;;;;;;5004771;28;21008;-52
2023/03/29 00:13:38;;;;;;;8.53;4.17;;;0.30;99.90;;;;;;5010905;28;20468;-50
2023/03/29 00:16:06;;;;;;;5.70;3.77;;;0.30;99.90;;;;;;5012724;28;20555;-51
2023/03/29 00:18:32;;;;;;;9.33;5.27;;;0.30;99.90;;;;;;5012916;28;20448;-51
2023/03/29 00:21:00;;;;;;;9.00;4.70;;;0.30;99.90;;;;;;5008309;28;20512;-52
2023/03/29 00:23:27;;;;;;;9.63;4.63;;;0.30;99.90;;;;;;5009990;28;20460;-52
2023/03/29 00:25:54;;;;;;;10.10;4.83;;;0.30;99.90;;;;;;5011216;28;20860;-51
2023/03/29 00:28:21;;;;;;;9.67;4.47;;;0.40;99.90;;;;;;5003933;28;21024;-50
2023/03/29 00:30:49;;;;;;;10.00;4.30;;;0.40;99.90;;;;;;5011074;28;20492;-51
2023/03/29 00:33:17;;;;;;;7.70;4.53;;;0.40;99.90;;;;;;5010682;28;20467;-51
2023/03/29 00:35:45;;;;;;;10.60;5.07;;;0.50;99.90;;;;;;5012525;28;20464;-56
2023/03/29 00:38:12;;;;;;;8.27;4.97;;;0.50;99.90;;;;;;5011113;28;20467;-56
2023/03/29 00:40:42;;;;;;;10.40;4.90;;;0.60;99.90;;;;;;5005802;28;20493;-60
2023/03/29 00:43:10;;;;;;;7.90;4.60;;;0.60;99.90;;;;;;5009404;28;20455;-56
2023/03/29 00:45:37;;;;;;;10.40;4.77;;;0.60;99.90;;;;;;5011264;28;20462;-56
2023/03/29 00:48:07;;;;;;;6.50;4.47;;;0.70;99.90;;;;;;5011317;28;20490;-55
2023/03/29 00:50:36;;;;;;;5.80;5.07;;;0.70;99.90;;;;;;5007746;28;20574;-56
2023/03/29 00:53:07;;;;;;;8.20;5.10;;;0.80;99.90;;;;;;5006314;22;20501;-51
2023/03/29 00:55:37;;;;;;;6.00;4.30;;;0.80;99.90;;;;;;4988398;28;20982;-50
2023/03/29 00:58:07;;;;;;;11.40;5.10;;;0.90;99.90;;;;;;4991110;28;20485;-50
2023/03/29 01:00:38;;;;;;;13.00;6.20;;;0.90;99.90;;;;;;4991076;28;20480;-51
2023/03/29 01:03:12;;;;;;;9.37;5.87;;;1.00;99.90;;;;;;4992128;28;20461;-51
2023/03/29 01:05:43;;;;;;;10.57;5.93;;;1.00;99.90;;;;;;4990714;28;20467;-51
2023/03/29 01:08:17;;;;;;;14.43;7.20;;;1.10;99.90;;;;;;4991250;28;20465;-50
2023/03/29 01:10:49;;;;;;;19.03;5.77;;;1.10;99.90;;;;;;4986303;28;20560;-51
2023/03/29 01:13:20;;;;;;;20.70;6.73;;;1.20;99.90;;;;;;4992648;28;20576;-50
2023/03/29 01:15:47;;;;;;;11.53;5.70;;;1.30;99.90;;;;;;4992869;28;20556;-51
2023/03/29 01:18:14;;;;;;;10.70;6.20;;;1.40;99.90;;;;;;4991367;28;20520;-51
2023/03/29 01:20:52;;;;;;;10.87;5.33;;;1.50;99.90;;;;;;4994813;28;20489;-50
2023/03/29 01:23:37;;;;;;;13.30;5.80;;;1.50;99.90;;;;;;5000808;28;20464;-50
2023/03/29 01:26:13;;;;;;;8.50;5.30;;;1.60;99.90;;;;;;4998907;28;20461;-50
2023/03/29 01:28:46;;;;;;;9.87;5.10;;;1.70;99.90;;;;;;4993960;28;20495;-51
2023/03/29 01:31:16;;;;;;;7.20;4.97;;;1.80;99.90;;;;;;4993358;28;20484;-51
2023/03/29 01:33:48;;;;;;;7.87;4.60;;;1.80;99.90;;;;;;4994908;28;20457;-51
2023/03/29 01:36:20;;;;;;;9.90;4.73;;;1.90;99.90;;;;;;4976162;28;20477;-52
2023/03/29 01:38:53;;;;;;;8.93;5.60;;;1.90;99.90;;;;;;4991808;28;20449;-51
2023/03/29 01:41:20;;;;;;;7.77;4.60;;;1.90;99.90;;;;;;4995102;28;20543;-51
2023/03/29 01:43:54;;;;;;;12.43;4.63;;;1.90;99.90;;;;;;4994415;28;20448;-51
2023/03/29 01:46:32;;;;;;;8.33;4.63;;;1.90;99.90;;;;;;4987467;28;20444;-51
2023/03/29 01:49:02;;;;;;;6.93;4.23;;;1.90;99.90;;;;;;4993841;28;20538;-51
2023/03/29 01:51:35;;;;;;;12.80;5.03;;;2.00;99.90;;;;;;4994953;28;20491;-51
2023/03/29 01:54:06;;;;;;;10.50;3.80;;;2.00;99.90;;;;;;4994164;28;20934;-51
2023/03/29 01:56:37;;;;;;;7.03;4.20;;;2.10;99.90;;;;;;4994918;28;20514;-51
2023/03/29 01:59:10;;;;;;;14.97;5.60;;;2.20;99.90;;;;;;4995270;28;20448;-51
2023/03/29 02:01:42;;;;;;;10.77;4.70;;;2.20;99.90;;;;;;4995033;28;20998;-52
2023/03/29 02:04:12;;;;;;;8.77;4.50;;;2.20;99.90;;;;;;4992357;28;20473;-51
2023/03/29 02:06:41;;;;;;;6.40;3.80;;;2.20;99.90;;;;;;4994599;28;20453;-51
2023/03/29 02:09:08;;;;;;;8.33;4.20;;;2.20;99.90;;;;;;4994897;28;21259;-51
2023/03/29 02:11:36;;;;;;;9.10;4.97;;;2.20;99.90;;;;;;4995054;28;20460;-51
2023/03/29 02:14:05;;;;;;;8.13;4.20;;;2.30;99.90;;;;;;4993689;28;20469;-51
2023/03/29 02:16:35;;;;;;;6.53;4.23;;;2.30;99.90;;;;;;4994721;28;20568;-51
2023/03/29 02:19:02;;;;;;;5.73;3.30;;;2.40;99.90;;;;;;4994214;28;20956;-51
2023/03/29 02:21:33;;;;;;;15.80;4.47;;;2.40;99.90;;;;;;4992788;28;20990;-51
2023/03/29 02:24:01;;;;;;;13.37;4.60;;;2.40;99.90;;;;;;4988936;28;20821;-51
2023/03/29 02:26:28;;;;;;;10.63;4.17;;;2.40;99.90;;;;;;4994629;28;20499;-51
2023/03/29 02:28:55;;;;;;;6.43;4.10;;;2.40;99.90;;;;;;4994223;28;20519;-51
2023/03/29 02:31:27;;;;;;;9.87;5.13;;;2.40;99.90;;;;;;4996895;28;20481;-51
2023/03/29 02:33:58;;;;;;;8.10;4.73;;;2.40;99.90;;;;;;4993977;28;20539;-51
2023/03/29 02:36:28;;;;;;;9.33;4.67;;;2.30;99.90;;;;;;4988446;28;20471;-51
2023/03/29 02:38:55;;;;;;;10.10;4.70;;;2.30;99.90;;;;;;4994283;28;20460;-51
2023/03/29 02:41:24;;;;;;;6.50;4.37;;;2.30;99.90;;;;;;4991178;28;20555;-51
2023/03/29 02:43:52;;;;;;;11.50;5.07;;;2.30;99.90;;;;;;4986393;28;21034;-51
2023/03/29 02:46:20;;;;;;;10.77;4.30;;;2.30;99.90;;;;;;4993521;28;20485;-51
2023/03/29 02:48:51;;;;;;;11.40;4.63;;;2.20;99.90;;;;;;5005497;28;20878;-52
2023/03/29 02:51:20;;;;;;;24.43;16.23;;;2.20;99.90;;;;;;4998727;28;20476;-52
2023/03/29 02:53:50;;;;;;;41.07;22.77;;;2.10;99.90;;;;;;4991302;28;20503;-52
2023/03/29 02:56:18;;;;;;;33.63;27.10;;;2.20;99.90;;;;;;4993324;28;20457;-52
2023/03/29 02:58:45;;;;;;;28.47;20.60;;;2.10;99.90;;;;;;4990871;28;20547;-52
2023/03/29 03:01:13;;;;;;;52.40;46.90;;;2.10;99.90;;;;;;4993117;28;20528;-52
2023/03/29 03:03:40;;;;;;;11.23;7.30;;;2.10;99.90;;;;;;4992658;28;20469;-52
2023/03/29 03:06:08;;;;;;;8.27;5.03;;;2.10;99.90;;;;;;4991406;28;20962;-52
2023/03/29 03:08:35;;;;;;;9.47;5.63;;;2.10;99.90;;;;;;4992582;28;20465;-52
2023/03/29 03:11:01;;;;;;;7.63;4.27;;;2.10;99.90;;;;;;4992995;28;20507;-52
2023/03/29 03:13:28;;;;;;;6.33;3.90;;;2.00;99.90;;;;;;4993541;28;20448;-52
2023/03/29 03:15:54;;;;;;;6.33;4.37;;;2.00;99.90;;;;;;4991145;28;20460;-52
2023/03/29 03:18:22;;;;;;;12.13;4.33;;;1.90;99.90;;;;;;4993588;28;20485;-52
2023/03/29 03:21:00;;;;;;;7.13;4.53;;;1.90;99.90;;;;;;4992429;28;20835;-52
2023/03/29 03:23:29;;;;;;;8.53;4.13;;;1.90;99.90;;;;;;4979326;28;20476;-52
2023/03/29 03:25:56;;;;;;;12.13;4.93;;;1.90;99.90;;;;;;4989711;28;20552;-52
2023/03/29 03:28:23;;;;;;;7.80;3.90;;;1.80;99.90;;;;;;4989972;28;20452;-52
2023/03/29 03:30:51;;;;;;;6.67;3.30;;;1.80;99.90;;;;;;4992302;28;20469;-52
2023/03/29 03:33:18;;;;;;;6.90;3.77;;;1.80;99.90;;;;;;4992146;28;20476;-52
2023/03/29 03:35:46;;;;;;;8.03;3.90;;;1.80;99.90;;;;;;4992182;28;20471;-52
2023/03/29 03:38:14;;;;;;;9.20;4.00;;;1.70;99.90;;;;;;4992618;28;20516;-52
2023/03/29 03:40:42;;;;;;;11.23;4.47;;;1.80;99.90;;;;;;4993314;28;20453;-52
2023/03/29 03:43:08;;;;;;;9.17;4.50;;;1.70;99.90;;;;;;4993264;28;20485;-52
2023/03/29 03:45:35;;;;;;;8.50;3.93;;;1.70;99.90;;;;;;4991886;28;20883;-52
2023/03/29 03:48:02;;;;;;;8.07;4.13;;;1.70;99.90;;;;;;4991784;28;20539;-52
2023/03/29 03:50:28;;;;;;;6.97;4.10;;;1.70;99.90;;;;;;4993114;28;20476;-52
2023/03/29 03:52:55;;;;;;;8.17;3.73;;;1.70;99.90;;;;;;4993009;28;20968;-52
2023/03/29 03:55:22;;;;;;;13.43;4.07;;;1.70;99.90;;;;;;4991840;28;20488;-51
2023/03/29 03:57:51;;;;;;;7.70;3.93;;;1.80;99.90;;;;;;4992953;28;20847;-52
2023/03/29 04:00:19;;;;;;;15.70;4.43;;;1.70;99.90;;;;;;4992930;28;20464;-51
2023/03/29 04:02:45;;;;;;;8.60;3.70;;;1.80;99.90;;;;;;4992927;28;20472;-51
2023/03/29 04:05:12;;;;;;;8.30;3.90;;;1.80;99.90;;;;;;4989813;28;20473;-51
2023/03/29 04:07:40;;;;;;;9.60;4.13;;;1.80;99.90;;;;;;4992768;28;20438;-51
2023/03/29 04:10:09;;;;;;;9.90;3.57;;;1.70;99.90;;;;;;4992709;28;20461;-52
2023/03/29 04:12:37;;;;;;;8.40;4.10;;;1.70;99.90;;;;;;4992872;28;20478;-51
2023/03/29 04:15:07;;;;;;;10.37;3.87;;;1.70;99.90;;;;;;4991436;28;20466;-51
2023/03/29 04:17:34;;;;;;;5.87;3.50;;;1.80;99.90;;;;;;4990177;28;20501;-50
2023/03/29 04:20:05;;;;;;;9.90;4.17;;;1.80;99.90;;;;;;4988888;28;20469;-51
2023/03/29 04:22:32;;;;;;;6.10;3.93;;;1.80;99.90;;;;;;4990193;28;20891;-51
2023/03/29 04:24:59;;;;;;;7.57;3.70;;;1.80;99.90;;;;;;4985692;28;20524;-52
2023/03/29 04:27:25;;;;;;;9.60;4.20;;;1.80;99.90;;;;;;4989478;28;20963;-52
2023/03/29 04:29:52;;;;;;;8.77;3.90;;;1.80;99.90;;;;;;4989289;28;20469;-52
2023/03/29 04:32:20;;;;;;;6.27;4.00;;;1.80;99.90;;;;;;4990481;28;20571;-52
2023/03/29 04:34:46;;;;;;;12.30;4.20;;;1.80;99.90;;;;;;4988527;28;20563;-52
2023/03/29 04:37:15;;;;;;;6.80;3.83;;;1.80;99.90;;;;;;4987443;28;20511;-51
2023/03/29 04:39:43;;;;;;;7.30;3.83;;;1.80;99.90;;;;;;4990435;28;20511;-51
2023/03/29 04:42:11;;;;;;;9.17;4.33;;;1.80;99.90;;;;;;4987627;28;20543;-51
2023/03/29 04:44:39;;;;;;;8.70;4.33;;;1.80;99.90;;;;;;4986015;28;20515;-51
2023/03/29 04:47:05;;;;;;;10.33;4.67;;;1.80;99.90;;;;;;4989074;28;20527;-51
2023/03/29 04:49:33;;;;;;;7.07;5.10;;;1.90;99.90;;;;;;4985206;28;20536;-51
2023/03/29 04:52:00;;;;;;;7.23;4.77;;;1.90;99.90;;;;;;4983795;28;20500;-51
2023/03/29 04:54:27;;;;;;;6.67;4.03;;;1.90;99.90;;;;;;4996068;28;20467;-51
2023/03/29 04:56:53;;;;;;;5.87;3.90;;;2.00;99.90;;;;;;4986539;28;20494;-52
2023/03/29 04:59:20;;;;;;;9.53;4.30;;;2.00;22.40;;;;;;4992531;28;20623;-51
2023/03/29 05:01:46;;;;;;;5.23;4.10;;;2.00;21.50;;;;;;4997669;28;20571;-51
2023/03/29 05:04:13;;;;;;;8.80;4.00;;;2.00;22.10;;;;;;4989846;28;20461;-51
2023/03/29 05:06:41;;;;;;;5.80;3.93;;;2.00;23.40;;;;;;4992272;28;20502;-51
2023/03/29 05:09:09;;;;;;;4.77;3.93;;;2.00;22.30;;;;;;4988571;28;20515;-51
2023/03/29 05:11:35;;;;;;;9.53;3.90;;;2.00;21.10;;;;;;4987051;28;20484;-52
2023/03/29 05:14:06;;;;;;;14.60;4.43;;;2.00;25.70;;;;;;4981812;28;20831;-53
2023/03/29 05:16:33;;;;;;;6.70;4.17;;;2.10;28.10;;;;;;4985354;28;20477;-51
2023/03/29 05:19:00;;;;;;;10.47;4.60;;;2.10;27.70;;;;;;4990247;28;21002;-52
2023/03/29 05:21:27;;;;;;;11.53;4.40;;;2.10;32.20;;;;;;4990892;28;20971;-52
2023/03/29 05:23:55;;;;;;;9.87;3.70;;;2.10;33.40;;;;;;4991225;28;20467;-51
2023/03/29 05:26:22;;;;;;;19.67;4.93;;;2.20;37.90;;;;;;4989110;28;20863;-51
2023/03/29 05:28:48;;;;;;;15.63;4.60;;;2.20;43.10;;;;;;4991750;28;20480;-51
2023/03/29 05:31:15;;;;;;;13.63;4.40;;;2.30;42.50;;;;;;4989363;28;20515;-51
2023/03/29 05:33:42;;;;;;;9.80;4.50;;;2.30;36.70;;;;;;4985402;28;20842;-50
2023/03/29 05:36:12;;;;;;;8.70;5.30;;;2.30;43.20;;;;;;4995666;28;20477;-52
2023/03/29 05:38:39;;;;;;;10.20;4.67;;;2.40;50.10;;;;;;4988994;28;20476;-51
2023/03/29 05:41:07;;;;;;;11.07;5.50;;;2.30;52.60;;;;;;4990552;28;20883;-51
2023/03/29 05:43:34;;;;;;;9.90;5.20;;;2.40;51.90;;;;;;4988045;28;20461;-51
2023/03/29 05:46:01;;;;;;;14.43;5.83;;;2.40;54.60;;;;;;4984454;28;20445;-51
2023/03/29 05:48:27;;;;;;;9.60;5.33;;;2.40;54.40;;;;;;4989600;28;20541;-51
2023/03/29 05:50:56;;;;;;;13.83;5.53;;;2.50;57.10;;;;;;4986444;28;20477;-51
2023/03/29 05:53:25;;;;;;;10.20;4.70;;;2.60;60.90;;;;;;4983700;28;20920;-51
2023/03/29 05:55:51;;;;;;;7.97;4.90;;;2.70;65.60;;;;;;4992572;28;20449;-51
2023/03/29 05:58:20;;;;;;;8.33;5.20;;;2.70;70.20;;;;;;4992204;28;20670;-50
2023/03/29 06:00:48;;;;;;;9.63;5.10;;;2.70;70.20;;;;;;4991607;28;20464;-51
2023/03/29 06:03:17;;;;;;;12.30;4.80;;;2.80;71.30;;;;;;4990610;28;20487;-51
2023/03/29 06:05:45;;;;;;;9.53;5.00;;;2.80;77.30;;;;;;4992364;28;21022;-51
2023/03/29 06:08:11;;;;;;;8.13;4.73;;;2.80;80.00;;;;;;4990464;28;20511;-51
2023/03/29 06:10:38;;;;;;;7.90;4.27;;;2.90;86.80;;;;;;4993658;28;20514;-51
2023/03/29 06:13:05;;;;;;;11.23;4.13;;;3.00;87.70;;;;;;4993922;28;20492;-51
2023/03/29 06:15:34;;;;;;;7.93;4.13;;;3.00;89.50;;;;;;4995214;28;20542;-51
2023/03/29 06:18:02;;;;;;;9.17;4.23;;;3.10;90.70;;;;;;4988073;28;20484;-51
2023/03/29 06:20:29;;;;;;;8.30;4.70;;;3.20;92.00;;;;;;4991533;28;20516;-51
2023/03/29 06:22:55;;;;;;;17.43;5.90;;;3.20;97.60;;;;;;4984280;28;20516;-50
2023/03/29 06:25:22;;;;;;;7.00;4.20;;;3.40;99.90;;;;;;4994068;28;20461;-50
2023/03/29 06:27:49;;;;;;;6.40;4.23;;;3.40;99.90;;;;;;4992350;28;20546;-51
2023/03/29 06:30:16;;;;;;;9.60;4.40;;;3.60;99.90;;;;;;4991598;28;20490;-51
2023/03/29 06:32:44;;;;;;;17.63;5.77;;;3.70;99.90;;;;;;4990939;28;20530;-51
2023/03/29 06:35:11;;;;;;;14.80;3.80;;;3.80;99.90;;;;;;4991138;28;20547;-51
2023/03/29 06:37:39;;;;;;;12.20;5.13;;;4.00;99.90;;;;;;4999315;28;20493;-51
2023/03/29 06:40:08;;;;;;;10.87;5.57;;;4.00;99.90;;;;;;4996290;28;20464;-51
2023/03/29 06:42:35;;;;;;;6.63;4.03;;;4.20;99.90;;;;;;4994871;28;20485;-51
2023/03/29 06:45:03;;;;;;;6.93;3.87;;;4.10;99.90;;;;;;4991391;28;20456;-51
2023/03/29 06:47:30;;;;;;;8.23;3.30;;;4.20;99.90;;;;;;4991989;28;20519;-51
2023/03/29 06:49:58;;;;;;;9.37;4.53;;;4.30;99.90;;;;;;4993135;28;20471;-52
2023/03/29 06:52:24;;;;;;;6.57;3.50;;;4.50;99.90;;;;;;5006030;23;20525;-49
2023/03/29 06:54:51;;;;;;;13.30;3.83;;;4.50;99.90;;;;;;4991340;28;20497;-56
2023/03/29 06:57:18;;;;;;;9.37;4.37;;;4.60;99.90;;;;;;4992231;28;20465;-56
2023/03/29 06:59:45;;;;;;;5.73;3.33;;;4.60;99.90;;;;;;4991032;28;20567;-56
2023/03/29 07:02:12;;;;;;;16.33;4.70;;;4.70;99.90;;;;;;4990504;28;20544;-56
2023/03/29 07:04:40;;;;;;;7.03;4.00;;;4.80;99.90;;;;;;4994338;28;20476;-56
2023/03/29 07:07:18;;;;;;;5.10;3.90;;;4.80;99.90;;;;;;4988696;28;20473;-56
2023/03/29 07:09:45;;;;;;;5.70;4.10;;;4.80;99.90;;;;;;4986739;28;20492;-53
2023/03/29 07:12:12;;;;;;;13.13;4.23;;;4.90;99.90;;;;;;4990332;28;20523;-53
2023/03/29 07:14:38;;;;;;;3.70;3.20;;;4.90;99.90;;;;;;4988624;28;20498;-53
2023/03/29 07:17:05;;;;;;;6.87;3.63;;;5.00;99.90;;;;;;4988356;28;20510;-53
2023/03/29 07:19:32;;;;;;;9.00;3.43;;;5.00;99.90;;;;;;4991442;28;20516;-53
2023/03/29 07:21:59;;;;;;;12.67;4.10;;;5.00;99.90;;;;;;4978072;28;20879;-53
2023/03/29 07:24:27;;;;;;;10.43;4.30;;;5.10;99.90;;;;;;4981792;28;20464;-53
2023/03/29 07:26:53;;;;;;;6.97;4.07;;;5.20;99.90;;;;;;4992126;28;21729;-56
2023/03/29 07:29:20;;;;;;;7.70;3.60;;;5.30;99.90;;;;;;4989775;28;21109;-55
2023/03/29 07:31:46;;;;;;;8.30;3.90;;;5.40;99.90;;;;;;4990252;28;20476;-55
2023/03/29 07:34:16;;;;;;;15.03;4.17;;;5.40;99.90;;;;;;4989620;28;20547;-57
2023/03/29 07:36:44;;;;;;;5.87;3.80;;;5.50;99.90;;;;;;4988277;28;20488;-56
2023/03/29 07:39:11;;;;;;;5.60;3.63;;;5.60;99.90;;;;;;4991466;28;20472;-56
2023/03/29 07:41:39;;;;;;;7.60;4.13;;;5.80;99.90;;;;;;4991080;28;20465;-56
2023/03/29 07:44:07;;;;;;;11.10;4.47;;;5.80;99.90;;;;;;4988636;28;21175;-57
2023/03/29 07:46:34;;;;;;;5.17;3.50;;;5.80;99.90;;;;;;4992352;28;20465;-55
2023/03/29 07:49:01;;;;;;;6.33;4.27;;;5.90;99.90;;;;;;4988518;28;20518;-56
2023/03/29 07:51:28;;;;;;;12.07;3.50;;;6.10;99.90;;;;;;4984824;28;20489;-57
2023/03/29 07:53:54;;;;;;;9.50;4.03;;;6.30;1.40;;;;;;4989252;28;20524;-56
2023/03/29 07:56:22;;;;;;;7.87;3.63;;;6.50;99.90;;;;;;4986780;28;20465;-56
2023/03/29 07:58:50;;;;;;;11.13;3.80;;;6.90;99.90;;;;;;4992034;28;20496;-55
2023/03/29 08:01:18;;;;;;;4.67;3.30;;;7.50;99.90;;;;;;4992973;28;20449;-56
2023/03/29 08:03:44;;;;;;;14.67;4.03;;;7.60;99.90;;;;;;4990403;28;20518;-55
2023/03/29 08:06:11;;;;;;;8.03;4.33;;;8.00;99.90;;;;;;4991403;28;20941;-55
2023/03/29 08:08:38;;;;;;;5.20;3.33;;;8.30;99.90;;;;;;4982370;28;20468;-55
2023/03/29 08:11:06;;;;;;;4.37;3.97;;;8.40;99.90;;;;;;4989499;28;20497;-56
2023/03/29 08:13:32;;;;;;;8.10;3.10;;;8.50;99.90;;;;;;4991983;28;20535;-55
2023/03/29 08:16:00;;;;;;;10.93;4.30;;;8.30;99.90;;;;;;4986589;28;20481;-56
2023/03/29 08:18:27;;;;;;;8.90;4.10;;;8.10;99.90;;;;;;4985218;28;20487;-55
2023/03/29 08:20:54;;;;;;;4.27;3.37;;;7.90;99.90;;;;;;4989801;28;21273;-56
2023/03/29 08:23:20;;;;;;;4.90;3.63;;;7.70;99.90;;;;;;4989675;28;20531;-55
2023/03/29 08:25:47;;;;;;;6.83;3.20;;;7.50;99.90;;;;;;4989991;28;20605;-56
2023/03/29 08:28:13;;;;;;;11.53;3.87;;;7.50;99.90;;;;;;4989074;28;20523;-56
2023/03/29 08:30:40;;;;;;;3.37;2.73;;;7.60;99.90;;;;;;4990634;28;20578;-56
2023/03/29 08:33:08;;;;;;;10.80;3.87;;;7.80;99.90;;;;;;4990563;28;20571;-56
2023/03/29 08:35:35;;;;;;;5.50;3.23;;;7.90;99.90;;;;;;4989973;28;20461;-55
2023/03/29 08:38:02;;;;;;;5.37;2.60;;;8.20;99.90;;;;;;4983728;28;20469;-55
2023/03/29 08:40:30;;;;;;;5.13;3.30;;;8.50;99.90;;;;;;4988485;28;20469;-59
2023/03/29 08:43:09;;;;;;;3.67;2.80;;;8.80;99.90;;;;;;4992093;28;20469;-57
2023/03/29 08:45:42;;;;;;;4.57;3.03;;;9.30;99.90;;;;;;4986197;28;20493;-55
2023/03/29 08:48:22;;;;;;;7.10;4.20;;;9.50;99.90;;;;;;4987634;28;20469;-56
2023/03/29 08:50:52;;;;;;;11.40;3.70;;;9.40;99.90;;;;;;4988802;28;20531;-56
2023/03/29 08:53:24;;;;;;;13.37;4.40;;;9.70;99.90;;;;;;4990760;28;20588;-56
2023/03/29 08:55:52;;;;;;;4.60;2.80;;;9.40;99.90;;;;;;4988376;28;20493;-56
2023/03/29 08:58:23;;;;;;;10.60;3.20;;;9.00;99.90;;;;;;4988956;28;20457;-57
2023/03/29 09:00:52;;;;;;;4.53;2.87;;;8.90;99.90;;;;;;4987820;28;20469;-56
2023/03/29 09:03:22;;;;;;;6.10;3.10;;;9.10;99.90;;;;;;4984043;28;20512;-56
2023/03/29 09:05:53;;;;;;;3.80;2.90;;;9.50;99.90;;;;;;4985420;28;20466;-57
2023/03/29 09:08:21;;;;;;;4.97;3.10;;;10.20;99.90;;;;;;4991454;28;20433;-56
2023/03/29 09:11:00;;;;;;;8.77;3.67;;;9.90;99.90;;;;;;4991013;28;20500;-56
2023/03/29 09:13:39;;;;;;;4.47;3.10;;;9.30;99.90;;;;;;4991377;28;20854;-57
2023/03/29 09:16:16;;;;;;;3.27;3.00;;;8.90;99.90;;;;;;4988104;28;20465;-55
2023/03/29 09:18:51;;;;;;;16.03;3.60;;;8.70;99.90;;;;;;4990085;28;20509;-56
2023/03/29 09:21:25;;;;;;;9.97;3.90;;;8.60;99.90;;;;;;4990755;28;20538;-55
2023/03/29 09:24:14;;;;;;;6.10;3.57;;;8.90;99.90;;;;;;4986967;28;21077;-55
2023/03/29 09:26:47;;;;;;;5.73;3.20;;;9.80;99.90;;;;;;4985513;28;20962;-56
2023/03/29 09:29:33;;;;;;;4.57;3.30;;;10.30;99.90;;;;;;4993480;28;20880;-56
2023/03/29 09:32:05;;;;;;;3.70;3.00;;;10.70;99.90;;;;;;4993306;28;20484;-56
2023/03/29 09:34:40;;;;;;;10.50;3.10;;;10.80;99.90;;;;;;4989255;28;20540;-57
2023/03/29 09:37:11;;;;;;;6.10;3.60;;;10.90;99.90;;;;;;4987263;28;20954;-56
2023/03/29 09:39:39;;;;;;;11.20;3.10;;;10.90;99.90;;;;;;4992018;28;20903;-57
2023/03/29 09:42:08;;;;;;;5.40;3.30;;;10.60;99.90;;;;;;4990572;28;20566;-56
2023/03/29 09:44:38;;;;;;;3.37;3.07;;;10.20;99.90;;;;;;4993186;28;20465;-57
2023/03/29 09:47:11;;;;;;;4.77;3.20;;;10.60;99.90;;;;;;4992446;28;20955;-56
2023/03/29 09:49:43;;;;;;;3.80;2.90;;;11.60;99.90;;;;;;4981112;28;20457;-56
2023/03/29 09:52:13;;;;;;;7.00;3.00;;;12.20;99.90;;;;;;4990304;28;20520;-56
2023/03/29 09:54:40;;;;;;;7.77;2.90;;;12.00;99.90;;;;;;4997259;28;20467;-56
2023/03/29 09:57:11;;;;;;;10.70;5.10;;;12.30;99.90;;;;;;4993648;28;20496;-56
2023/03/29 09:59:37;;;;;;;3.40;2.57;;;12.80;99.90;;;;;;4993148;28;20521;-56
2023/03/29 10:02:09;;;;;;;4.00;2.43;;;13.30;99.90;;;;;;4993743;28;20503;-56
2023/03/29 10:04:35;;;;;;;4.70;2.83;;;13.20;99.90;;;;;;4992781;28;20466;-55
2023/03/29 10:07:04;;;;;;;4.77;2.67;;;12.70;99.90;;;;;;4993794;28;20469;-57
2023/03/29 10:09:33;;;;;;;4.60;2.70;;;13.40;99.90;;;;;;4994363;28;20449;-56
2023/03/29 10:12:02;;;;;;;8.07;3.47;;;13.90;99.90;;;;;;4992985;28;20507;-55
2023/03/29 10:14:34;;;;;;;7.67;2.90;;;14.90;99.90;;;;;;4988680;28;20462;-55
2023/03/29 10:17:00;;;;;;;3.70;2.57;;;15.40;99.90;;;;;;4989383;28;20520;-55
2023/03/29 10:19:29;;;;;;;4.73;2.63;;;15.80;99.90;;;;;;4992649;28;20490;-55
2023/03/29 10:21:59;;;;;;;4.27;2.90;;;15.70;99.90;;;;;;4998958;28;20937;-55
2023/03/29 10:24:27;;;;;;;9.27;3.27;;;14.50;99.90;;;;;;4992507;28;20465;-54
2023/03/29 10:26:58;;;;;;;6.20;2.87;;;13.30;99.90;;;;;;4991998;28;20470;-56
2023/03/29 10:29:26;;;;;;;3.00;2.70;;;12.50;99.90;;;;;;4993588;28;21024;-56
2023/03/29 10:31:53;;;;;;;4.40;2.60;;;12.60;99.90;;;;;;4991268;28;20502;-50
2023/03/29 10:34:24;;;;;;;2.83;2.50;;;11.50;99.90;;;;;;4993047;28;20471;-51
2023/03/29 10:36:56;;;;;;;3.67;2.60;;;11.50;99.90;;;;;;4992115;28;20463;-51
2023/03/29 10:39:24;;;;;;;4.87;3.00;;;11.70;99.90;;;;;;4989294;28;20491;-50
2023/03/29 10:41:52;;;;;;;4.00;2.73;;;11.80;99.90;;;;;;4992378;28;20496;-52
2023/03/29 10:44:29;;;;;;;2.57;2.33;;;11.90;99.90;;;;;;4992695;28;20958;-51
2023/03/29 10:46:56;;;;;;;4.40;3.00;;;11.90;99.90;;;;;;4986947;28;20484;-51
2023/03/29 10:49:24;;;;;;;3.83;2.77;;;11.80;99.90;;;;;;4986974;28;20546;-51
2023/03/29 10:51:52;;;;;;;5.43;2.50;;;11.50;99.90;;;;;;4990171;28;20470;-51
2023/03/29 10:54:21;;;;;;;3.17;2.87;;;11.40;99.90;;;;;;4992058;28;20460;-51
2023/03/29 10:56:52;;;;;;;2.67;2.40;;;11.20;99.90;;;;;;4988418;28;20465;-50
2023/03/29 10:59:27;;;;;;;4.43;2.73;;;10.80;99.90;;;;;;4985058;28;20521;-50
2023/03/29 11:02:19;;;;;;;10.90;3.67;;;10.40;99.90;;;;;;4983735;28;20489;-51
2023/03/29 11:04:51;;;;;;;3.47;2.50;;;10.40;99.90;;;;;;4992055;28;20495;-51
2023/03/29 11:07:26;;;;;;;5.37;2.70;;;10.40;99.90;;;;;;4992923;28;20946;-51
2023/03/29 11:09:59;;;;;;;3.40;2.77;;;10.50;99.90;;;;;;4988566;28;20532;-51
2023/03/29 11:12:28;;;;;;;6.13;2.90;;;10.50;99.90;;;;;;4992623;28;20469;-51
2023/03/29 11:15:09;;;;;;;2.60;2.50;;;10.60;99.90;;;;;;4993106;28;20484;-51
2023/03/29 11:17:51;;;;;;;2.73;2.47;;;10.70;99.90;;;;;;4993322;28;20471;-52
2023/03/29 11:20:25;;;;;;;3.90;2.60;;;10.80;99.90;;;;;;4990122;28;21080;-51
2023/03/29 11:22:58;;;;;;;10.43;4.20;;;11.40;99.90;;;;;;4992787;28;20472;-52
2023/03/29 11:25:40;;;;;;;2.87;2.67;;;11.80;99.90;;;;;;4993620;28;20441;-52
2023/03/29 11:28:14;;;;;;;2.57;2.37;;;12.10;99.90;;;;;;4988040;28;20842;-51
2023/03/29 11:30:48;;;;;;;7.40;3.30;;;11.40;99.90;;;;;;4986947;28;20520;-51
2023/03/29 11:33:24;;;;;;;8.13;3.20;;;10.80;99.90;;;;;;4990787;28;20528;-52
2023/03/29 11:35:57;;;;;;;4.50;2.50;;;10.80;99.90;;;;;;4984715;28;20457;-51
2023/03/29 11:38:32;;;;;;;5.37;3.30;;;10.60;99.90;;;;;;4980837;28;21042;-51
2023/03/29 11:41:03;;;;;;;2.53;2.33;;;10.90;99.90;;;;;;4988703;28;20529;-52
2023/03/29 11:43:35;;;;;;;2.90;2.60;;;11.10;99.90;;;;;;4986137;28;20488;-51
2023/03/29 11:46:09;;;;;;;2.03;1.93;;;10.90;99.90;;;;;;4992431;28;20457;-51
2023/03/29 11:48:39;;;;;;;2.10;1.90;;;11.10;99.90;;;;;;4988629;28;20467;-51
2023/03/29 11:51:12;;;;;;;2.43;2.23;;;11.20;99.90;;;;;;4989217;28;20490;-52
2023/03/29 11:53:45;;;;;;;3.53;2.20;;;11.50;99.90;;;;;;4988585;28;20493;-51
2023/03/29 11:56:16;;;;;;;12.60;3.00;;;11.60;99.90;;;;;;4989763;28;20531;-51
2023/03/29 11:58:48;;;;;;;5.60;3.47;;;11.40;99.90;;;;;;4989660;28;20465;-51
2023/03/29 12:01:23;;;;;;;5.63;2.37;;;11.30;99.90;;;;;;4990192;28;20485;-51
2023/03/29 12:03:53;;;;;;;2.30;2.20;;;11.20;99.90;;;;;;4990495;28;20825;-51
2023/03/29 12:06:25;;;;;;;2.80;2.53;;;10.90;99.90;;;;;;4991086;28;20933;-51
2023/03/29 12:08:59;;;;;;;2.43;2.23;;;10.80;99.90;;;;;;4989090;28;20571;-51
2023/03/29 12:11:30;;;;;;;2.70;2.50;;;10.80;99.90;;;;;;4982482;28;20462;-51
2023/03/29 12:13:59;;;;;;;4.43;2.47;;;10.90;99.90;;;;;;4986236;28;20525;-50
2023/03/29 12:16:32;;;;;;;4.30;2.33;;;10.90;99.90;;;;;;4989048;28;20978;-51
2023/03/29 12:19:04;;;;;;;8.67;2.60;;;10.80;99.90;;;;;;4990865;28;20959;-51
2023/03/29 12:21:33;;;;;;;3.73;2.27;;;10.80;99.90;;;;;;4973527;28;20489;-50
2023/03/29 12:24:01;;;;;;;5.90;2.70;;;10.80;99.90;;;;;;4984527;28;20466;-51
2023/03/29 12:26:49;;;;;;;2.70;2.20;;;10.90;99.90;;;;;;4989674;28;20547;-51
2023/03/29 12:29:31;;;;;;;4.87;2.50;;;11.00;99.90;;;;;;4988043;28;20512;-50
2023/03/29 12:32:14;;;;;;;3.53;2.67;;;10.70;99.90;;;;;;4989497;28;20974;-50
2023/03/29 12:34:56;;;;;;;5.50;2.80;;;10.70;99.90;;;;;;5005540;28;20519;-50
2023/03/29 12:37:45;;;;;;;6.80;2.77;;;10.70;99.90;;;;;;4991077;28;20453;-51
2023/03/29 12:40:15;;;;;;;3.00;2.63;;;10.70;99.90;;;;;;4991336;28;20508;-51
2023/03/29 12:42:46;;;;;;;3.20;2.90;;;10.60;99.90;;;;;;4992172;28;20480;-50
2023/03/29 12:45:19;;;;;;;3.00;2.67;;;10.70;99.90;;;;;;4989226;28;20461;-51
2023/03/29 12:47:51;;;;;;;3.53;3.27;;;10.60;99.90;;;;;;4987341;28;20461;-51
2023/03/29 12:50:28;;;;;;;4.90;4.00;;;10.60;99.90;;;;;;4985213;28;20449;-51
2023/03/29 12:53:03;;;;;;;4.77;3.07;;;10.50;99.90;;;;;;5001987;22;20447;-52
2023/03/29 12:55:33;;;;;;;6.23;2.43;;;10.40;99.90;;;;;;4962485;28;20466;-51
2023/03/29 12:58:05;;;;;;;3.90;2.60;;;10.40;99.90;;;;;;4988523;28;20476;-52
2023/03/29 13:00:42;;;;;;;4.10;3.20;;;10.40;99.90;;;;;;4969865;28;20518;-51
2023/03/29 13:03:27;;;;;;;3.83;3.23;;;10.40;99.90;;;;;;4965222;28;20481;-50